Time;durP1;ratioP1;P1;durP2;ratioP2;P2;SDS_P1;SDS_P2;PMS_P1;PMS_P2;Temp;Humidity;BMP_temperature;BMP_pressure;BME280_temperature;BME280_humidity;BME280_pressure;Samples;Min_cycle;Max_cycle;Signal;HPM_P1;HPM_P2
2023/06/08 00:00:11;;;;;;;13.35;6.72;;;18.80;59.00;;;;;;5035850;28;20431;-68
2023/06/08 00:02:42;;;;;;;11.95;5.47;;;18.80;59.00;;;;;;5035140;28;20527;-69
2023/06/08 00:05:12;;;;;;;12.90;5.78;;;18.70;59.00;;;;;;5037098;28;20048;-68
2023/06/08 00:07:40;;;;;;;11.52;5.68;;;18.70;59.10;;;;;;5038970;28;20021;-68
2023/06/08 00:10:09;;;;;;;13.38;6.82;;;18.70;59.20;;;;;;5033058;28;20036;-68
2023/06/08 00:12:35;;;;;;;12.85;6.28;;;18.70;59.20;;;;;;5034587;28;20029;-70
2023/06/08 00:15:00;;;;;;;12.90;5.75;;;18.60;59.20;;;;;;5030894;28;20034;-68
2023/06/08 00:17:27;;;;;;;13.20;5.72;;;18.60;59.20;;;;;;5050770;28;20042;-68
2023/06/08 00:19:56;;;;;;;10.27;5.72;;;18.60;59.30;;;;;;5037884;28;20041;-68
2023/06/08 00:22:22;;;;;;;10.57;5.88;;;18.60;59.40;;;;;;5043030;28;20362;-68
2023/06/08 00:24:48;;;;;;;12.48;6.28;;;18.60;59.50;;;;;;5031845;28;20068;-68
2023/06/08 00:27:14;;;;;;;12.02;5.72;;;18.60;59.60;;;;;;5037615;28;20025;-68
2023/06/08 00:29:41;;;;;;;11.60;5.93;;;18.50;59.60;;;;;;5035525;28;20363;-69
2023/06/08 00:32:07;;;;;;;17.65;5.80;;;18.40;59.60;;;;;;5019917;28;20382;-68
2023/06/08 00:34:35;;;;;;;14.98;6.70;;;18.40;59.70;;;;;;5043406;28;20344;-68
2023/06/08 00:37:02;;;;;;;13.13;6.38;;;18.40;59.80;;;;;;5010236;28;20026;-68
2023/06/08 00:39:28;;;;;;;12.43;5.43;;;18.30;59.90;;;;;;5022337;28;20484;-68
2023/06/08 00:41:53;;;;;;;12.95;6.43;;;18.30;60.00;;;;;;5036160;28;20029;-69
2023/06/08 00:44:19;;;;;;;11.85;5.95;;;18.20;60.00;;;;;;5043224;28;20021;-68
2023/06/08 00:46:45;;;;;;;12.32;5.38;;;18.20;60.20;;;;;;5011254;28;20054;-68
2023/06/08 00:49:17;;;;;;;13.57;6.43;;;18.20;60.30;;;;;;5041795;28;20369;-69
2023/06/08 00:51:43;;;;;;;13.60;6.85;;;18.20;60.40;;;;;;5032699;28;20025;-68
2023/06/08 00:54:10;;;;;;;12.32;6.28;;;18.10;60.40;;;;;;5030840;28;20121;-68
2023/06/08 00:56:38;;;;;;;9.95;6.07;;;18.10;60.50;;;;;;5023319;28;20043;-68
2023/06/08 00:59:05;;;;;;;13.43;6.45;;;18.10;60.60;;;;;;5032349;28;20119;-68
2023/06/08 01:01:32;;;;;;;11.20;5.72;;;18.00;60.70;;;;;;5040170;28;20025;-68
2023/06/08 01:04:07;;;;;;;14.10;6.03;;;18.00;61.50;;;;;;5033672;28;20108;-68
2023/06/08 01:06:48;;;;;;;16.55;6.65;;;18.00;60.90;;;;;;5019746;28;20439;-68
2023/06/08 01:09:46;;;;;;;10.75;5.50;;;18.00;61.00;;;;;;5044957;28;20040;-68
2023/06/08 01:12:35;;;;;;;14.02;6.10;;;17.90;61.00;;;;;;5040313;28;20042;-69
2023/06/08 01:15:27;;;;;;;11.00;5.75;;;17.90;61.10;;;;;;5039077;28;20095;-68
2023/06/08 01:17:57;;;;;;;;;;;17.90;61.10;;;;;;5026849;28;20359;-68
2023/06/08 01:20:53;;;;;;;12.48;6.00;;;17.80;61.00;;;;;;5027567;28;20019;-68
2023/06/08 01:23:50;;;;;;;10.93;5.85;;;17.70;61.20;;;;;;5028416;28;20030;-68
2023/06/08 01:26:18;;;;;;;11.93;5.80;;;17.70;61.30;;;;;;5020446;28;20116;-68
2023/06/08 01:28:49;;;;;;;13.68;6.00;;;17.70;61.40;;;;;;5012012;28;20025;-68
2023/06/08 01:31:15;;;;;;;10.82;5.53;;;17.60;61.50;;;;;;5034697;28;20013;-68
2023/06/08 01:33:41;;;;;;;12.57;6.07;;;17.60;62.30;;;;;;5021626;28;20485;-68
2023/06/08 01:36:15;;;;;;;12.65;6.57;;;17.50;61.70;;;;;;5048633;28;20036;-68
2023/06/08 01:38:59;;;;;;;12.05;6.38;;;17.50;61.90;;;;;;5028700;28;20025;-68
2023/06/08 01:41:32;;;;;;;13.90;6.18;;;17.50;62.00;;;;;;5047751;28;20120;-68
2023/06/08 01:43:59;;;;;;;10.55;5.90;;;17.40;62.00;;;;;;5038102;28;20044;-68
2023/06/08 01:46:27;;;;;;;10.98;5.80;;;17.40;62.10;;;;;;5045189;28;20059;-68
2023/06/08 01:48:58;;;;;;;14.02;6.63;;;17.40;62.20;;;;;;5025193;28;20025;-68
2023/06/08 01:51:26;;;;;;;11.35;6.38;;;17.40;62.30;;;;;;5032816;28;20026;-68
2023/06/08 01:54:02;;;;;;;11.90;6.32;;;17.40;62.30;;;;;;5040892;28;20037;-68
2023/06/08 01:56:32;;;;;;;14.63;6.55;;;17.30;62.40;;;;;;5048094;28;20037;-68
2023/06/08 01:58:58;;;;;;;11.85;6.53;;;17.30;62.50;;;;;;5019177;28;20038;-68
2023/06/08 02:01:24;;;;;;;14.50;7.22;;;17.30;62.50;;;;;;5046217;28;20190;-68
2023/06/08 02:03:50;;;;;;;12.43;6.70;;;17.30;62.60;;;;;;5045554;28;20024;-68
2023/06/08 02:06:16;;;;;;;14.35;6.47;;;17.30;62.60;;;;;;5007970;28;20045;-68
2023/06/08 02:08:42;;;;;;;14.57;6.65;;;17.30;62.70;;;;;;5030854;28;20085;-68
2023/06/08 02:11:09;;;;;;;12.63;6.80;;;17.30;62.60;;;;;;5024156;28;20034;-68
2023/06/08 02:13:44;;;;;;;13.50;6.18;;;17.30;62.70;;;;;;5041258;28;20030;-68
2023/06/08 02:16:11;;;;;;;12.98;6.68;;;17.20;62.70;;;;;;5018094;28;20033;-68
2023/06/08 02:18:40;;;;;;;14.77;6.90;;;17.20;62.70;;;;;;5027662;28;20040;-68
2023/06/08 02:21:10;;;;;;;15.38;6.43;;;17.20;62.70;;;;;;5005515;28;20040;-68
2023/06/08 02:23:35;;;;;;;13.48;6.70;;;17.20;62.70;;;;;;5033717;28;20018;-68
2023/06/08 02:26:03;;;;;;;12.48;6.80;;;17.20;62.80;;;;;;5003180;28;20374;-68
2023/06/08 02:28:29;;;;;;;11.15;6.40;;;17.10;62.80;;;;;;5018610;28;20124;-68
2023/06/08 02:30:55;;;;;;;11.23;6.22;;;17.20;62.90;;;;;;5006780;28;20084;-68
2023/06/08 02:33:21;;;;;;;12.90;7.40;;;17.10;62.90;;;;;;5039279;28;20094;-68
2023/06/08 02:35:49;;;;;;;13.65;6.22;;;17.10;63.00;;;;;;5001026;28;20026;-68
2023/06/08 02:38:16;;;;;;;12.20;6.22;;;17.10;62.90;;;;;;5051508;28;20102;-68
2023/06/08 02:40:42;;;;;;;12.55;6.88;;;17.10;63.00;;;;;;5020460;28;20026;-68
2023/06/08 02:43:08;;;;;;;13.40;7.18;;;17.10;63.00;;;;;;5047833;28;20055;-68
2023/06/08 02:45:35;;;;;;;13.15;7.18;;;17.00;63.10;;;;;;5033790;28;20037;-68
2023/06/08 02:48:04;;;;;;;11.55;6.47;;;17.00;63.10;;;;;;5041800;28;20029;-68
2023/06/08 02:50:30;;;;;;;13.88;7.03;;;16.90;63.10;;;;;;5036527;28;20021;-68
2023/06/08 02:52:56;;;;;;;12.55;6.85;;;16.90;63.20;;;;;;5019730;28;20049;-68
2023/06/08 02:55:23;;;;;;;14.05;6.70;;;16.90;63.20;;;;;;5050154;28;20037;-68
2023/06/08 02:57:51;;;;;;;12.05;6.90;;;16.90;63.10;;;;;;4992832;28;20036;-68
2023/06/08 03:00:20;;;;;;;11.93;6.88;;;16.90;63.20;;;;;;5045175;28;20022;-68
2023/06/08 03:03:12;;;;;;;12.77;8.07;;;16.90;63.20;;;;;;5029516;28;20099;-68
2023/06/08 03:05:39;;;;;;;13.32;7.10;;;16.90;63.30;;;;;;5031995;28;20128;-68
2023/06/08 03:08:07;;;;;;;11.52;6.75;;;16.90;63.30;;;;;;5027315;28;20046;-68
2023/06/08 03:10:32;;;;;;;12.68;6.82;;;16.90;63.30;;;;;;5033353;28;20035;-68
2023/06/08 03:12:59;;;;;;;15.43;7.50;;;16.80;63.20;;;;;;5035440;28;20395;-68
2023/06/08 03:15:25;;;;;;;12.77;7.70;;;16.80;63.30;;;;;;5043949;28;20160;-68
2023/06/08 03:17:57;;;;;;;13.90;7.70;;;16.80;63.30;;;;;;5031829;28;20109;-68
2023/06/08 03:20:23;;;;;;;13.32;7.43;;;16.80;63.30;;;;;;5043032;28;20491;-67
2023/06/08 03:23:04;;;;;;;14.23;8.07;;;16.70;63.50;;;;;;5031955;28;20034;-68
2023/06/08 03:25:31;;;;;;;13.48;7.35;;;16.70;63.50;;;;;;5031736;28;20037;-68
2023/06/08 03:27:57;;;;;;;12.55;7.55;;;16.60;64.30;;;;;;5030806;28;20034;-68
2023/06/08 03:30:23;;;;;;;15.55;7.22;;;16.60;63.70;;;;;;5041135;28;20211;-68
2023/06/08 03:32:51;;;;;;;12.05;7.57;;;16.60;63.70;;;;;;5024847;28;20025;-68
2023/06/08 03:35:23;;;;;;;15.05;8.60;;;16.60;63.80;;;;;;5041943;28;20017;-68
2023/06/08 03:38:03;;;;;;;16.20;7.60;;;16.60;63.80;;;;;;5041323;28;20020;-67
2023/06/08 03:40:29;;;;;;;14.10;7.95;;;16.50;63.90;;;;;;5015989;28;20112;-67
2023/06/08 03:42:56;;;;;;;11.57;7.80;;;16.50;63.90;;;;;;5041992;28;20080;-68
2023/06/08 03:45:25;;;;;;;12.65;7.75;;;16.50;63.90;;;;;;5020279;28;20068;-68
2023/06/08 03:47:52;;;;;;;14.90;7.75;;;16.50;64.00;;;;;;5049343;28;20453;-68
2023/06/08 03:50:20;;;;;;;13.63;8.45;;;16.40;64.00;;;;;;5024918;28;20512;-68
2023/06/08 03:52:46;;;;;;;15.15;8.35;;;16.50;64.10;;;;;;5028468;28;20116;-67
2023/06/08 03:55:12;;;;;;;11.98;7.40;;;16.40;64.10;;;;;;5035739;28;20111;-68
2023/06/08 03:57:40;;;;;;;13.40;8.00;;;16.40;64.20;;;;;;5048320;28;20336;-67
2023/06/08 04:00:15;;;;;;;15.02;8.55;;;16.40;64.20;;;;;;5031900;28;20070;-67
2023/06/08 04:02:40;;;;;;;14.18;8.77;;;16.40;64.20;;;;;;5036255;28;20042;-67
2023/06/08 04:05:13;;;;;;;15.80;8.45;;;16.40;64.20;;;;;;5027606;28;20042;-68
2023/06/08 04:07:40;;;;;;;14.20;8.23;;;16.40;64.20;;;;;;5019994;28;20445;-68
2023/06/08 04:10:07;;;;;;;12.35;8.13;;;16.40;64.30;;;;;;5033429;28;20029;-68
2023/06/08 04:12:33;;;;;;;12.98;7.70;;;16.40;64.20;;;;;;5011198;28;20171;-67
2023/06/08 04:14:58;;;;;;;14.18;8.60;;;16.40;64.20;;;;;;5008089;28;20423;-67
2023/06/08 04:17:27;;;;;;;13.55;8.20;;;16.40;64.20;;;;;;5022222;28;20431;-68
2023/06/08 04:19:54;;;;;;;14.10;8.45;;;16.40;64.20;;;;;;5016083;28;20030;-68
2023/06/08 04:22:19;;;;;;;14.98;7.88;;;16.40;64.20;;;;;;5040918;28;20060;-67
2023/06/08 04:24:50;;;;;;;14.75;8.60;;;16.40;64.20;;;;;;5024580;28;20370;-68
2023/06/08 04:27:17;;;;;;;13.50;8.45;;;16.40;64.10;;;;;;5040676;28;20362;-67
2023/06/08 04:29:43;;;;;;;12.68;8.32;;;16.50;64.10;;;;;;5048106;28;20033;-68
2023/06/08 04:32:10;;;;;;;12.82;8.15;;;16.50;64.00;;;;;;5027996;28;20427;-68
2023/06/08 04:34:37;;;;;;;13.18;7.82;;;16.50;64.00;;;;;;5020497;28;20059;-68
2023/06/08 04:37:03;;;;;;;15.10;8.32;;;16.50;64.00;;;;;;5034648;28;20068;-67
2023/06/08 04:39:28;;;;;;;13.57;8.65;;;16.60;64.00;;;;;;5032824;28;20029;-67
2023/06/08 04:41:55;;;;;;;15.48;8.68;;;16.50;64.00;;;;;;5004145;28;21249;-67
2023/06/08 04:44:21;;;;;;;12.77;8.45;;;16.60;64.00;;;;;;5023201;28;20508;-68
2023/06/08 04:46:49;;;;;;;17.58;9.73;;;16.60;64.00;;;;;;5023645;28;20025;-67
2023/06/08 04:49:16;;;;;;;14.32;8.95;;;16.60;64.00;;;;;;5029377;28;20040;-68
2023/06/08 04:51:46;;;;;;;16.38;9.20;;;16.60;63.90;;;;;;5023797;28;20032;-69
2023/06/08 04:54:16;;;;;;;14.52;8.73;;;16.60;63.90;;;;;;5031485;28;20078;-68
2023/06/08 04:56:42;;;;;;;15.15;8.48;;;16.60;63.90;;;;;;5031669;28;20022;-68
2023/06/08 04:59:09;;;;;;;12.75;8.82;;;16.60;63.80;;;;;;5033452;28;20036;-67
2023/06/08 05:01:35;;;;;;;14.52;8.70;;;16.70;63.80;;;;;;5028070;28;20057;-67
2023/06/08 05:04:06;;;;;;;15.02;8.13;;;16.70;63.70;;;;;;5016164;28;20026;-67
2023/06/08 05:06:37;;;;;;;17.60;8.70;;;16.80;63.80;;;;;;5031863;28;20037;-67
2023/06/08 05:09:03;;;;;;;14.17;8.27;;;16.80;63.70;;;;;;5033650;28;20029;-67
2023/06/08 05:11:29;;;;;;;13.93;8.73;;;16.90;63.70;;;;;;5034954;28;20032;-67
2023/06/08 05:13:54;;;;;;;14.50;8.63;;;16.90;63.50;;;;;;5033734;28;20037;-67
2023/06/08 05:16:20;;;;;;;12.95;8.43;;;17.00;63.30;;;;;;5012830;28;20462;-67
2023/06/08 05:18:46;;;;;;;16.35;8.93;;;17.00;63.10;;;;;;5032758;28;20382;-67
2023/06/08 05:21:12;;;;;;;13.10;8.35;;;17.10;63.00;;;;;;5035396;28;20120;-68
2023/06/08 05:23:39;;;;;;;13.30;8.05;;;17.30;62.80;;;;;;5025157;28;20021;-67
2023/06/08 05:26:05;;;;;;;14.60;9.13;;;17.40;62.60;;;;;;5033089;28;20034;-67
2023/06/08 05:28:31;;;;;;;15.48;9.27;;;17.50;62.40;;;;;;5032234;28;20029;-67
2023/06/08 05:30:56;;;;;;;13.98;8.93;;;17.60;62.10;;;;;;5033665;28;20147;-67
2023/06/08 05:33:22;;;;;;;14.38;7.70;;;17.60;62.00;;;;;;5039736;28;20060;-67
2023/06/08 05:35:48;;;;;;;15.13;8.70;;;17.70;61.90;;;;;;5038462;28;20036;-67
2023/06/08 05:38:14;;;;;;;13.25;8.52;;;17.70;61.80;;;;;;5038538;28;20052;-67
2023/06/08 05:40:40;;;;;;;13.93;8.48;;;17.80;61.60;;;;;;5055071;28;20438;-67
2023/06/08 05:43:05;;;;;;;17.58;8.40;;;17.90;61.40;;;;;;5042843;28;20447;-67
2023/06/08 05:45:31;;;;;;;13.50;8.15;;;17.90;61.40;;;;;;5053744;28;20438;-67
2023/06/08 05:47:57;;;;;;;13.00;7.68;;;18.00;61.10;;;;;;5021851;28;20427;-67
2023/06/08 05:50:23;;;;;;;11.32;8.32;;;18.10;61.00;;;;;;5031633;28;20372;-67
2023/06/08 05:52:48;;;;;;;14.88;7.65;;;18.20;60.80;;;;;;5033292;28;20098;-67
2023/06/08 05:55:14;;;;;;;12.90;8.25;;;18.20;60.50;;;;;;5041509;28;20348;-67
2023/06/08 05:57:40;;;;;;;13.40;7.30;;;18.30;60.30;;;;;;5031155;28;20175;-67
2023/06/08 06:00:10;;;;;;;13.40;7.55;;;18.40;60.10;;;;;;5049677;28;20120;-67
2023/06/08 06:02:39;;;;;;;14.45;8.52;;;18.50;60.00;;;;;;5037972;28;20030;-67
2023/06/08 06:05:08;;;;;;;15.52;7.82;;;18.50;59.80;;;;;;5034856;28;20053;-67
2023/06/08 06:07:35;;;;;;;15.27;8.60;;;18.60;59.60;;;;;;5011446;28;20036;-66
2023/06/08 06:10:02;;;;;;;15.38;7.70;;;18.70;59.40;;;;;;5032878;28;20481;-66
2023/06/08 06:12:28;;;;;;;12.98;7.75;;;18.80;59.30;;;;;;5045160;28;20083;-67
2023/06/08 06:14:55;;;;;;;14.38;7.90;;;18.80;59.30;;;;;;5022679;28;20052;-67
2023/06/08 06:17:21;;;;;;;12.63;7.03;;;18.90;59.10;;;;;;5046410;28;20038;-67
2023/06/08 06:19:47;;;;;;;13.00;7.60;;;19.00;59.00;;;;;;5031045;28;20081;-67
2023/06/08 06:22:13;;;;;;;11.80;7.15;;;19.20;58.80;;;;;;5047568;28;20025;-66
2023/06/08 06:24:39;;;;;;;13.25;6.65;;;19.30;58.50;;;;;;5039463;28;20047;-67
2023/06/08 06:27:06;;;;;;;13.18;7.53;;;19.40;58.30;;;;;;5029719;28;20039;-67
2023/06/08 06:29:33;;;;;;;13.45;7.88;;;19.50;57.90;;;;;;5007432;28;20038;-67
2023/06/08 06:31:59;;;;;;;13.63;7.55;;;19.60;57.70;;;;;;5030978;28;20022;-67
2023/06/08 06:34:25;;;;;;;11.20;6.70;;;19.70;57.50;;;;;;5032094;28;20026;-67
2023/06/08 06:36:51;;;;;;;13.50;7.28;;;19.80;57.30;;;;;;5036413;28;20078;-67
2023/06/08 06:39:18;;;;;;;13.18;7.70;;;19.90;57.10;;;;;;5038419;28;20442;-67
2023/06/08 06:41:44;;;;;;;12.32;7.50;;;19.80;56.90;;;;;;5036479;28;20025;-67
2023/06/08 06:44:11;;;;;;;14.15;7.72;;;19.90;57.00;;;;;;5052745;28;20039;-67
2023/06/08 06:46:38;;;;;;;12.30;7.57;;;19.90;56.80;;;;;;5037807;28;20446;-66
2023/06/08 06:49:03;;;;;;;16.00;8.15;;;19.80;56.80;;;;;;5012670;28;20044;-67
2023/06/08 06:51:29;;;;;;;12.23;7.18;;;19.70;57.00;;;;;;5029225;28;20434;-67
2023/06/08 06:53:55;;;;;;;11.95;7.97;;;19.60;57.30;;;;;;5011061;28;20030;-67
2023/06/08 06:56:21;;;;;;;12.40;7.95;;;19.40;57.50;;;;;;5021185;28;20034;-67
2023/06/08 06:58:47;;;;;;;16.60;7.72;;;19.30;57.70;;;;;;5031945;28;20030;-67
2023/06/08 07:01:15;;;;;;;13.15;7.65;;;19.30;57.90;;;;;;5017258;28;20030;-67
2023/06/08 07:03:42;;;;;;;14.52;7.72;;;19.30;58.10;;;;;;5027775;28;20063;-67
2023/06/08 07:06:12;;;;;;;12.82;7.85;;;19.30;58.10;;;;;;5021243;28;20050;-68
2023/06/08 07:08:38;;;;;;;11.50;7.80;;;19.30;58.10;;;;;;5027559;28;20033;-69
2023/06/08 07:11:05;;;;;;;11.50;7.53;;;19.30;57.90;;;;;;5031812;28;20461;-67
2023/06/08 07:13:31;;;;;;;12.00;7.85;;;19.30;57.90;;;;;;5033941;28;20053;-67
2023/06/08 07:15:57;;;;;;;13.27;7.15;;;19.30;57.80;;;;;;5011821;28;20022;-67
2023/06/08 07:18:24;;;;;;;13.77;8.07;;;19.30;57.60;;;;;;5032212;28;20064;-67
2023/06/08 07:20:51;;;;;;;11.85;7.30;;;19.40;57.60;;;;;;5032653;28;20052;-67
2023/06/08 07:23:17;;;;;;;13.88;7.88;;;19.40;57.60;;;;;;5033636;28;20065;-67
2023/06/08 07:25:44;;;;;;;13.10;7.47;;;19.50;57.60;;;;;;5032777;28;20173;-67
2023/06/08 07:28:09;;;;;;;10.52;6.95;;;19.70;57.30;;;;;;5032010;28;20104;-68
2023/06/08 07:30:36;;;;;;;11.30;7.40;;;19.80;57.10;;;;;;5033288;28;20117;-67
2023/06/08 07:33:03;;;;;;;12.75;7.93;;;19.90;57.10;;;;;;5036093;28;20180;-67
2023/06/08 07:35:30;;;;;;;14.38;7.80;;;19.90;57.10;;;;;;5034825;28;20065;-67
2023/06/08 07:37:56;;;;;;;14.18;8.30;;;19.90;57.30;;;;;;5031919;28;20100;-68
2023/06/08 07:40:22;;;;;;;11.55;7.72;;;19.90;57.30;;;;;;5019199;28;20045;-67
2023/06/08 07:42:47;;;;;;;11.15;6.90;;;19.80;57.50;;;;;;5033616;28;20026;-67
2023/06/08 07:45:14;;;;;;;12.60;7.88;;;19.80;57.40;;;;;;5036770;28;20022;-68
2023/06/08 07:47:41;;;;;;;13.85;7.57;;;19.80;57.40;;;;;;5017916;28;20485;-68
2023/06/08 07:50:07;;;;;;;11.77;7.30;;;19.80;57.30;;;;;;5029398;28;20064;-67
2023/06/08 07:52:33;;;;;;;13.95;7.72;;;19.80;57.40;;;;;;5034530;28;20370;-67
2023/06/08 07:54:59;;;;;;;15.70;7.68;;;19.90;57.40;;;;;;5035312;28;20029;-69
2023/06/08 07:57:26;;;;;;;12.80;7.00;;;19.90;57.20;;;;;;5031170;28;20038;-69
2023/06/08 07:59:52;;;;;;;14.05;8.00;;;19.90;57.20;;;;;;5024374;28;20049;-69
2023/06/08 08:02:17;;;;;;;10.70;6.80;;;20.00;57.10;;;;;;5027499;28;20113;-69
2023/06/08 08:04:43;;;;;;;11.88;7.22;;;20.00;57.00;;;;;;5036232;28;20441;-69
2023/06/08 08:07:09;;;;;;;11.10;6.68;;;20.00;56.90;;;;;;5035506;28;20079;-70
2023/06/08 08:09:35;;;;;;;11.48;6.95;;;20.00;57.00;;;;;;5017764;28;20032;-69
2023/06/08 08:12:01;;;;;;;12.30;7.63;;;20.00;57.20;;;;;;5030793;28;20037;-69
2023/06/08 08:14:27;;;;;;;12.38;6.88;;;20.00;57.30;;;;;;5035455;28;20041;-69
2023/06/08 08:16:53;;;;;;;12.93;7.38;;;19.90;57.30;;;;;;5036123;28;20030;-69
2023/06/08 08:19:19;;;;;;;11.15;7.13;;;20.00;57.40;;;;;;5036316;28;20025;-70
2023/06/08 08:21:45;;;;;;;9.35;6.72;;;20.00;57.20;;;;;;5029494;28;20033;-69
2023/06/08 08:24:11;;;;;;;11.65;7.18;;;19.90;57.20;;;;;;5034877;28;20033;-69
2023/06/08 08:26:40;;;;;;;12.00;7.13;;;19.90;57.00;;;;;;5036059;28;20057;-70
2023/06/08 08:29:06;;;;;;;12.10;7.38;;;19.80;57.00;;;;;;5036177;28;20052;-69
2023/06/08 08:31:32;;;;;;;11.85;6.72;;;19.80;57.00;;;;;;5038311;28;20023;-69
2023/06/08 08:33:58;;;;;;;10.32;6.63;;;19.80;57.10;;;;;;5046654;28;20446;-69
2023/06/08 08:36:24;;;;;;;12.48;7.13;;;19.80;57.20;;;;;;5037829;28;20021;-69
2023/06/08 08:38:50;;;;;;;12.32;7.35;;;19.80;57.10;;;;;;5055871;28;20426;-69
2023/06/08 08:41:20;;;;;;;15.13;6.93;;;19.80;57.10;;;;;;5050362;28;20033;-69
2023/06/08 08:43:49;;;;;;;14.00;7.28;;;19.90;57.10;;;;;;5045299;28;20111;-69
2023/06/08 08:46:16;;;;;;;11.18;6.57;;;19.90;57.10;;;;;;5047827;28;20018;-70
2023/06/08 08:48:42;;;;;;;13.13;6.38;;;19.90;57.20;;;;;;5033721;28;20033;-69
2023/06/08 08:51:18;;;;;;;13.27;7.00;;;20.00;57.30;;;;;;5034878;28;20033;-69
2023/06/08 08:53:46;;;;;;;15.70;7.50;;;20.00;57.30;;;;;;5014857;28;20465;-69
2023/06/08 08:56:15;;;;;;;14.43;7.93;;;20.00;57.20;;;;;;5034638;28;20135;-69
2023/06/08 08:58:42;;;;;;;13.57;7.13;;;20.00;57.00;;;;;;5035022;28;20033;-69
2023/06/08 09:01:10;;;;;;;14.77;7.35;;;20.00;57.10;;;;;;5035338;28;20417;-69
2023/06/08 09:03:38;;;;;;;11.65;6.65;;;20.00;57.20;;;;;;5032536;28;20040;-69
2023/06/08 09:06:06;;;;;;;14.05;7.38;;;20.00;57.20;;;;;;5035022;28;20128;-69
2023/06/08 09:08:32;;;;;;;13.95;6.80;;;20.00;57.20;;;;;;5035173;28;20032;-69
2023/06/08 09:11:02;;;;;;;12.27;6.38;;;20.00;57.20;;;;;;5034058;28;20030;-69
2023/06/08 09:13:27;;;;;;;11.73;6.40;;;20.10;57.10;;;;;;5034034;28;20032;-69
2023/06/08 09:15:53;;;;;;;12.85;6.40;;;20.10;57.00;;;;;;5033237;28;20342;-69
2023/06/08 09:18:19;;;;;;;14.23;6.53;;;20.20;56.90;;;;;;5033693;28;20036;-70
2023/06/08 09:20:45;;;;;;;13.25;6.55;;;20.40;56.70;;;;;;5034055;28;20022;-69
2023/06/08 09:23:24;;;;;;;12.02;5.72;;;20.70;56.40;;;;;;5035105;28;20039;-70
2023/06/08 09:25:52;;;;;;;10.20;6.13;;;21.30;55.50;;;;;;5035093;28;20047;-69
2023/06/08 09:28:28;;;;;;;11.63;6.55;;;21.90;54.40;;;;;;5027296;28;20029;-69
2023/06/08 09:30:59;;;;;;;10.35;5.93;;;22.40;53.80;;;;;;5017169;28;20368;-69
2023/06/08 09:33:27;;;;;;;10.70;5.15;;;22.80;53.00;;;;;;5042222;28;20108;-69
2023/06/08 09:35:56;;;;;;;9.98;5.22;;;23.20;52.40;;;;;;5053930;28;20036;-69
2023/06/08 09:38:25;;;;;;;8.93;5.20;;;23.40;52.10;;;;;;5044673;28;20033;-69
2023/06/08 09:40:51;;;;;;;9.75;5.13;;;23.40;51.90;;;;;;5040977;28;20430;-69
2023/06/08 09:43:31;;;;;;;10.50;5.43;;;23.40;51.70;;;;;;5053260;28;20044;-69
2023/06/08 09:45:57;;;;;;;9.73;5.15;;;23.40;51.70;;;;;;5053406;28;20299;-69
2023/06/08 09:48:23;;;;;;;8.80;4.78;;;23.50;51.70;;;;;;5036862;28;20045;-69
2023/06/08 09:50:49;;;;;;;9.57;5.20;;;23.70;51.40;;;;;;5041125;28;20057;-69
2023/06/08 09:53:16;;;;;;;8.57;5.10;;;24.00;50.90;;;;;;5049663;28;20510;-69
2023/06/08 09:55:42;;;;;;;15.98;4.88;;;24.30;50.50;;;;;;5053505;28;20087;-69
2023/06/08 09:58:10;;;;;;;9.43;4.68;;;24.50;50.10;;;;;;5053555;28;20430;-69
2023/06/08 10:00:38;;;;;;;10.40;4.78;;;24.70;49.60;;;;;;5029473;28;20030;-69
2023/06/08 10:03:03;;;;;;;8.65;4.03;;;24.80;49.40;;;;;;5024386;28;20045;-69
2023/06/08 10:05:33;;;;;;;9.27;4.80;;;25.00;49.20;;;;;;5033901;28;20041;-69
2023/06/08 10:07:59;;;;;;;10.25;5.13;;;25.20;48.70;;;;;;5033321;28;20029;-69
2023/06/08 10:10:35;;;;;;;9.30;4.60;;;25.40;48.50;;;;;;5034568;28;20029;-69
2023/06/08 10:13:02;;;;;;;10.48;4.60;;;25.60;48.20;;;;;;5032240;28;20041;-69
2023/06/08 10:15:28;;;;;;;9.07;4.10;;;25.70;48.10;;;;;;5032823;28;20056;-69
2023/06/08 10:17:55;;;;;;;9.55;4.50;;;25.70;48.00;;;;;;5033927;28;20422;-69
2023/06/08 10:20:21;;;;;;;9.65;4.57;;;25.80;48.00;;;;;;5032807;28;20472;-69
2023/06/08 10:22:47;;;;;;;8.45;4.57;;;26.00;48.40;;;;;;5031989;28;20080;-69
2023/06/08 10:25:16;;;;;;;9.88;4.45;;;26.10;47.40;;;;;;5033290;28;20159;-69
2023/06/08 10:27:51;;;;;;;8.43;4.10;;;26.20;47.20;;;;;;5032892;28;20033;-69
2023/06/08 10:30:41;;;;;;;9.65;4.82;;;26.10;47.00;;;;;;5034119;28;20033;-69
2023/06/08 10:33:23;;;;;;;11.32;4.85;;;26.00;47.00;;;;;;5037073;28;20040;-69
2023/06/08 10:36:10;;;;;;;8.63;4.20;;;26.00;47.00;;;;;;5042483;28;20038;-69
2023/06/08 10:38:56;;;;;;;8.32;4.05;;;26.00;47.10;;;;;;5025660;28;20518;-69
2023/06/08 10:41:53;;;;;;;8.05;3.85;;;26.00;47.00;;;;;;5046838;28;20037;-69
2023/06/08 10:44:33;;;;;;;9.23;4.20;;;26.30;47.00;;;;;;5045051;28;20362;-69
2023/06/08 10:47:02;;;;;;;7.13;3.60;;;26.50;46.80;;;;;;5035021;28;20072;-69
2023/06/08 10:49:33;;;;;;;6.88;3.58;;;26.60;46.60;;;;;;5037641;28;20029;-68
2023/06/08 10:52:03;;;;;;;7.30;3.97;;;26.80;46.50;;;;;;5042068;28;20037;-68
2023/06/08 10:54:31;;;;;;;8.75;3.60;;;26.90;46.20;;;;;;5033258;28;20045;-67
2023/06/08 10:57:04;;;;;;;7.93;3.65;;;26.90;46.00;;;;;;5027303;28;20068;-66
2023/06/08 10:59:37;;;;;;;10.50;4.43;;;27.00;45.60;;;;;;5022630;28;20036;-67
2023/06/08 11:02:05;;;;;;;8.18;3.78;;;27.10;45.30;;;;;;5051731;28;20098;-66
2023/06/08 11:04:33;;;;;;;8.07;3.70;;;27.10;45.10;;;;;;5045377;28;20409;-66
2023/06/08 11:07:03;;;;;;;7.28;3.63;;;27.10;45.10;;;;;;5036530;28;20036;-66
2023/06/08 11:09:34;;;;;;;7.65;3.65;;;27.20;45.30;;;;;;5035925;28;20053;-67
2023/06/08 11:12:00;;;;;;;;;;;27.30;45.30;;;;;;5042503;28;20029;-66
2023/06/08 11:14:26;;;;;;;7.15;3.30;;;27.40;45.40;;;;;;5047286;28;19960;-66
2023/06/08 11:16:54;;;;;;;7.82;3.70;;;27.40;45.10;;;;;;5035292;28;20099;-66
2023/06/08 11:19:21;;;;;;;8.95;3.25;;;27.50;45.00;;;;;;5035027;28;20029;-65
2023/06/08 11:21:56;;;;;;;9.35;3.42;;;27.60;44.90;;;;;;5029393;28;20030;-66
2023/06/08 11:24:28;;;;;;;10.07;3.55;;;27.60;44.80;;;;;;5038254;28;20025;-66
2023/06/08 11:27:01;;;;;;;8.63;3.53;;;27.70;44.70;;;;;;5027359;28;20052;-66
2023/06/08 11:29:27;;;;;;;6.68;3.28;;;27.70;44.60;;;;;;5024269;28;20028;-66
2023/06/08 11:31:54;;;;;;;5.88;2.85;;;27.80;44.50;;;;;;5031504;28;20402;-66
2023/06/08 11:34:22;;;;;;;7.53;3.42;;;27.90;44.30;;;;;;5043385;28;20056;-67
2023/06/08 11:36:49;;;;;;;7.22;3.28;;;27.90;44.20;;;;;;5039581;28;20084;-68
2023/06/08 11:39:15;;;;;;;7.60;3.17;;;27.90;44.00;;;;;;5048960;28;20033;-66
2023/06/08 11:41:46;;;;;;;8.88;3.35;;;27.90;43.80;;;;;;5031974;28;20033;-65
2023/06/08 11:44:13;;;;;;;7.15;3.60;;;27.90;43.70;;;;;;5046320;28;20033;-67
2023/06/08 11:46:40;;;;;;;8.02;3.95;;;27.90;43.70;;;;;;5026870;28;20029;-66
2023/06/08 11:49:12;;;;;;;7.10;3.22;;;27.80;43.70;;;;;;5038014;28;20028;-66
2023/06/08 11:51:46;;;;;;;7.85;3.40;;;27.80;43.70;;;;;;5029397;28;20116;-66
2023/06/08 11:54:12;;;;;;;7.15;3.95;;;27.80;44.00;;;;;;5048212;28;20332;-66
2023/06/08 11:56:38;;;;;;;7.45;3.75;;;27.70;43.80;;;;;;5033749;28;20125;-67
2023/06/08 11:59:04;;;;;;;6.05;3.30;;;27.70;43.80;;;;;;5015458;28;20071;-68
2023/06/08 12:01:30;;;;;;;7.78;3.55;;;27.60;43.80;;;;;;5030765;28;20018;-67
2023/06/08 12:03:56;;;;;;;9.15;3.53;;;27.60;44.00;;;;;;5036975;28;20035;-67
2023/06/08 12:06:26;;;;;;;6.40;3.75;;;27.50;44.20;;;;;;5037028;28;20363;-68
2023/06/08 12:08:56;;;;;;;7.07;3.05;;;27.50;44.30;;;;;;4998838;28;20031;-68
2023/06/08 12:11:22;;;;;;;8.73;3.75;;;27.50;44.40;;;;;;5029194;28;20033;-68
2023/06/08 12:13:48;;;;;;;7.65;3.63;;;27.40;44.30;;;;;;5030232;28;20357;-67
2023/06/08 12:16:14;;;;;;;10.07;4.00;;;27.40;44.30;;;;;;5041878;28;20116;-67
2023/06/08 12:18:43;;;;;;;6.70;3.53;;;27.30;44.30;;;;;;5042346;28;20037;-66
2023/06/08 12:21:15;;;;;;;7.70;4.38;;;27.20;44.50;;;;;;5034327;28;20026;-68
2023/06/08 12:23:42;;;;;;;7.95;3.97;;;27.10;44.60;;;;;;5049404;28;20124;-67
2023/06/08 12:26:08;;;;;;;9.07;3.92;;;27.10;44.60;;;;;;5043179;28;20381;-66
2023/06/08 12:28:34;;;;;;;8.05;3.85;;;27.10;44.80;;;;;;5051863;28;20166;-67
2023/06/08 12:31:00;;;;;;;9.10;3.60;;;27.00;44.80;;;;;;5031665;28;20029;-66
2023/06/08 12:33:30;;;;;;;7.25;3.50;;;27.00;45.00;;;;;;5038098;28;20033;-67
2023/06/08 12:35:56;;;;;;;7.65;3.70;;;26.90;44.90;;;;;;5041156;28;20116;-66
2023/06/08 12:38:22;;;;;;;8.98;3.58;;;26.90;45.00;;;;;;5048818;28;20057;-67
2023/06/08 12:40:51;;;;;;;7.47;3.63;;;26.80;44.90;;;;;;5025012;28;20026;-68
2023/06/08 12:43:21;;;;;;;7.53;3.58;;;26.80;44.90;;;;;;5032566;28;20021;-67
2023/06/08 12:45:47;;;;;;;6.00;3.33;;;26.80;45.00;;;;;;5021883;28;20092;-67